sensor_id;sensor_type;location;lat;lon;timestamp;P1;durP1;ratioP1;P2;durP2;ratioP2
18716;SDS011;9487;50.892;6.906;2024-01-30T00:00:25;15.50;;;13.87;;
18716;SDS011;9487;50.892;6.906;2024-01-30T00:02:52;16.80;;;14.53;;
18716;SDS011;9487;50.892;6.906;2024-01-30T00:05:19;15.30;;;13.30;;
18716;SDS011;9487;50.892;6.906;2024-01-30T00:07:46;14.57;;;12.93;;
18716;SDS011;9487;50.892;6.906;2024-01-30T00:10:13;15.97;;;14.00;;
18716;SDS011;9487;50.892;6.906;2024-01-30T00:12:41;15.30;;;13.27;;
18716;SDS011;9487;50.892;6.906;2024-01-30T00:15:08;15.43;;;13.13;;
18716;SDS011;9487;50.892;6.906;2024-01-30T00:17:35;14.43;;;12.67;;
18716;SDS011;9487;50.892;6.906;2024-01-30T00:20:03;15.80;;;14.13;;
18716;SDS011;9487;50.892;6.906;2024-01-30T00:22:31;16.37;;;14.67;;
18716;SDS011;9487;50.892;6.906;2024-01-30T00:24:58;14.43;;;12.93;;
18716;SDS011;9487;50.892;6.906;2024-01-30T00:27:25;15.47;;;13.80;;
18716;SDS011;9487;50.892;6.906;2024-01-30T00:29:54;16.40;;;14.00;;
18716;SDS011;9487;50.892;6.906;2024-01-30T00:32:20;16.27;;;13.60;;
18716;SDS011;9487;50.892;6.906;2024-01-30T00:34:48;18.60;;;14.73;;
18716;SDS011;9487;50.892;6.906;2024-01-30T00:37:15;16.13;;;14.53;;
18716;SDS011;9487;50.892;6.906;2024-01-30T00:39:41;15.17;;;13.37;;
18716;SDS011;9487;50.892;6.906;2024-01-30T00:42:08;17.70;;;14.53;;
18716;SDS011;9487;50.892;6.906;2024-01-30T00:44:35;17.33;;;13.73;;
18716;SDS011;9487;50.892;6.906;2024-01-30T00:47:05;14.93;;;13.43;;
18716;SDS011;9487;50.892;6.906;2024-01-30T00:49:31;15.83;;;14.23;;
18716;SDS011;9487;50.892;6.906;2024-01-30T00:51:58;15.47;;;13.83;;
18716;SDS011;9487;50.892;6.906;2024-01-30T00:54:25;17.07;;;14.13;;
18716;SDS011;9487;50.892;6.906;2024-01-30T00:56:52;15.13;;;13.63;;
18716;SDS011;9487;50.892;6.906;2024-01-30T00:59:19;16.07;;;13.57;;
18716;SDS011;9487;50.892;6.906;2024-01-30T01:01:46;15.90;;;14.30;;
18716;SDS011;9487;50.892;6.906;2024-01-30T01:04:14;16.03;;;14.33;;
18716;SDS011;9487;50.892;6.906;2024-01-30T01:06:41;17.10;;;14.43;;
18716;SDS011;9487;50.892;6.906;2024-01-30T01:09:09;19.00;;;15.03;;
18716;SDS011;9487;50.892;6.906;2024-01-30T01:11:36;17.70;;;15.73;;
18716;SDS011;9487;50.892;6.906;2024-01-30T01:14:04;21.10;;;15.87;;
18716;SDS011;9487;50.892;6.906;2024-01-30T01:16:31;18.00;;;15.43;;
18716;SDS011;9487;50.892;6.906;2024-01-30T01:18:57;18.07;;;14.97;;
18716;SDS011;9487;50.892;6.906;2024-01-30T01:21:28;16.77;;;14.93;;
18716;SDS011;9487;50.892;6.906;2024-01-30T01:23:54;16.93;;;14.90;;
18716;SDS011;9487;50.892;6.906;2024-01-30T01:26:21;19.87;;;15.00;;
18716;SDS011;9487;50.892;6.906;2024-01-30T01:28:48;16.60;;;14.63;;
18716;SDS011;9487;50.892;6.906;2024-01-30T01:31:15;17.87;;;14.53;;
18716;SDS011;9487;50.892;6.906;2024-01-30T01:33:42;20.33;;;14.80;;
18716;SDS011;9487;50.892;6.906;2024-01-30T01:36:09;16.97;;;14.40;;
18716;SDS011;9487;50.892;6.906;2024-01-30T01:38:37;16.93;;;15.13;;
18716;SDS011;9487;50.892;6.906;2024-01-30T01:41:04;16.50;;;13.43;;
18716;SDS011;9487;50.892;6.906;2024-01-30T01:43:31;18.00;;;14.50;;
18716;SDS011;9487;50.892;6.906;2024-01-30T01:45:58;18.53;;;14.07;;
18716;SDS011;9487;50.892;6.906;2024-01-30T01:48:26;15.83;;;13.83;;
18716;SDS011;9487;50.892;6.906;2024-01-30T01:50:53;15.57;;;13.97;;
18716;SDS011;9487;50.892;6.906;2024-01-30T01:53:20;17.30;;;14.07;;
18716;SDS011;9487;50.892;6.906;2024-01-30T01:55:49;17.53;;;14.67;;
18716;SDS011;9487;50.892;6.906;2024-01-30T01:58:18;17.17;;;14.60;;
18716;SDS011;9487;50.892;6.906;2024-01-30T02:00:47;18.30;;;13.47;;
18716;SDS011;9487;50.892;6.906;2024-01-30T02:03:14;15.67;;;13.90;;
18716;SDS011;9487;50.892;6.906;2024-01-30T02:05:46;15.60;;;13.83;;
18716;SDS011;9487;50.892;6.906;2024-01-30T02:08:13;15.33;;;13.70;;
18716;SDS011;9487;50.892;6.906;2024-01-30T02:10:40;16.57;;;13.93;;
18716;SDS011;9487;50.892;6.906;2024-01-30T02:13:08;15.90;;;13.70;;
18716;SDS011;9487;50.892;6.906;2024-01-30T02:15:35;15.93;;;13.67;;
18716;SDS011;9487;50.892;6.906;2024-01-30T02:18:02;16.40;;;14.13;;
18716;SDS011;9487;50.892;6.906;2024-01-30T02:20:29;17.83;;;13.73;;
18716;SDS011;9487;50.892;6.906;2024-01-30T02:22:59;17.03;;;13.70;;
18716;SDS011;9487;50.892;6.906;2024-01-30T02:25:32;16.43;;;14.70;;
18716;SDS011;9487;50.892;6.906;2024-01-30T02:27:59;14.67;;;13.00;;
18716;SDS011;9487;50.892;6.906;2024-01-30T02:30:26;15.63;;;13.27;;
18716;SDS011;9487;50.892;6.906;2024-01-30T02:32:53;15.50;;;13.47;;
18716;SDS011;9487;50.892;6.906;2024-01-30T02:35:20;15.27;;;13.23;;
18716;SDS011;9487;50.892;6.906;2024-01-30T02:37:46;16.70;;;13.90;;
18716;SDS011;9487;50.892;6.906;2024-01-30T02:40:15;15.77;;;13.30;;
18716;SDS011;9487;50.892;6.906;2024-01-30T02:42:41;15.40;;;13.50;;
18716;SDS011;9487;50.892;6.906;2024-01-30T02:45:09;17.87;;;14.10;;
18716;SDS011;9487;50.892;6.906;2024-01-30T02:47:37;16.80;;;14.30;;
18716;SDS011;9487;50.892;6.906;2024-01-30T02:50:05;17.53;;;14.50;;
18716;SDS011;9487;50.892;6.906;2024-01-30T02:52:32;15.93;;;13.33;;
18716;SDS011;9487;50.892;6.906;2024-01-30T02:54:59;18.47;;;13.73;;
18716;SDS011;9487;50.892;6.906;2024-01-30T02:57:27;17.27;;;14.27;;
18716;SDS011;9487;50.892;6.906;2024-01-30T02:59:54;15.37;;;13.53;;
18716;SDS011;9487;50.892;6.906;2024-01-30T03:02:21;14.90;;;13.20;;
18716;SDS011;9487;50.892;6.906;2024-01-30T03:04:48;16.57;;;13.30;;
18716;SDS011;9487;50.892;6.906;2024-01-30T03:07:15;15.30;;;13.70;;
18716;SDS011;9487;50.892;6.906;2024-01-30T03:09:42;16.37;;;13.63;;
18716;SDS011;9487;50.892;6.906;2024-01-30T03:12:09;16.90;;;13.70;;
18716;SDS011;9487;50.892;6.906;2024-01-30T03:14:37;16.77;;;13.73;;
18716;SDS011;9487;50.892;6.906;2024-01-30T03:17:04;14.90;;;13.27;;
18716;SDS011;9487;50.892;6.906;2024-01-30T03:19:31;15.43;;;13.40;;
18716;SDS011;9487;50.892;6.906;2024-01-30T03:21:58;16.37;;;13.63;;
18716;SDS011;9487;50.892;6.906;2024-01-30T03:24:25;14.73;;;12.70;;
18716;SDS011;9487;50.892;6.906;2024-01-30T03:26:52;14.93;;;13.30;;
18716;SDS011;9487;50.892;6.906;2024-01-30T03:29:19;16.10;;;13.30;;
18716;SDS011;9487;50.892;6.906;2024-01-30T03:31:48;18.13;;;14.30;;
18716;SDS011;9487;50.892;6.906;2024-01-30T03:34:15;14.47;;;12.93;;
18716;SDS011;9487;50.892;6.906;2024-01-30T03:36:41;15.03;;;13.27;;
18716;SDS011;9487;50.892;6.906;2024-01-30T03:39:08;16.30;;;12.93;;
18716;SDS011;9487;50.892;6.906;2024-01-30T03:41:35;13.47;;;12.07;;
18716;SDS011;9487;50.892;6.906;2024-01-30T03:44:02;14.43;;;12.60;;
18716;SDS011;9487;50.892;6.906;2024-01-30T03:46:29;17.33;;;13.77;;
18716;SDS011;9487;50.892;6.906;2024-01-30T03:48:59;15.10;;;12.77;;
18716;SDS011;9487;50.892;6.906;2024-01-30T03:51:26;13.77;;;12.37;;
18716;SDS011;9487;50.892;6.906;2024-01-30T03:53:52;15.77;;;12.77;;
18716;SDS011;9487;50.892;6.906;2024-01-30T03:56:19;15.90;;;13.40;;
18716;SDS011;9487;50.892;6.906;2024-01-30T03:58:46;14.60;;;13.07;;
18716;SDS011;9487;50.892;6.906;2024-01-30T04:01:13;14.47;;;12.00;;
18716;SDS011;9487;50.892;6.906;2024-01-30T04:03:40;13.63;;;11.77;;
18716;SDS011;9487;50.892;6.906;2024-01-30T04:06:10;13.60;;;11.93;;
18716;SDS011;9487;50.892;6.906;2024-01-30T04:08:37;15.93;;;13.37;;
18716;SDS011;9487;50.892;6.906;2024-01-30T04:11:04;13.40;;;12.00;;
18716;SDS011;9487;50.892;6.906;2024-01-30T04:13:31;13.37;;;11.97;;
18716;SDS011;9487;50.892;6.906;2024-01-30T04:15:58;13.73;;;12.20;;
18716;SDS011;9487;50.892;6.906;2024-01-30T04:18:26;14.37;;;11.63;;
18716;SDS011;9487;50.892;6.906;2024-01-30T04:20:53;13.53;;;12.17;;
18716;SDS011;9487;50.892;6.906;2024-01-30T04:23:21;15.63;;;13.10;;
18716;SDS011;9487;50.892;6.906;2024-01-30T04:25:48;14.03;;;11.90;;
18716;SDS011;9487;50.892;6.906;2024-01-30T04:28:15;15.83;;;12.10;;
18716;SDS011;9487;50.892;6.906;2024-01-30T04:30:42;14.43;;;12.93;;
18716;SDS011;9487;50.892;6.906;2024-01-30T04:33:10;14.10;;;12.50;;
18716;SDS011;9487;50.892;6.906;2024-01-30T04:35:37;13.70;;;11.40;;
18716;SDS011;9487;50.892;6.906;2024-01-30T04:38:04;14.00;;;12.07;;
18716;SDS011;9487;50.892;6.906;2024-01-30T04:40:32;14.00;;;11.43;;
18716;SDS011;9487;50.892;6.906;2024-01-30T04:42:59;13.73;;;11.53;;
18716;SDS011;9487;50.892;6.906;2024-01-30T04:45:26;13.40;;;10.93;;
18716;SDS011;9487;50.892;6.906;2024-01-30T04:47:52;13.73;;;11.10;;
18716;SDS011;9487;50.892;6.906;2024-01-30T04:50:19;12.10;;;10.80;;
18716;SDS011;9487;50.892;6.906;2024-01-30T04:52:46;12.23;;;11.00;;
18716;SDS011;9487;50.892;6.906;2024-01-30T04:55:13;12.00;;;10.80;;
18716;SDS011;9487;50.892;6.906;2024-01-30T04:57:41;12.43;;;10.70;;
18716;SDS011;9487;50.892;6.906;2024-01-30T05:00:08;13.93;;;11.60;;
18716;SDS011;9487;50.892;6.906;2024-01-30T05:02:37;13.33;;;11.90;;
18716;SDS011;9487;50.892;6.906;2024-01-30T05:05:04;12.97;;;10.70;;
18716;SDS011;9487;50.892;6.906;2024-01-30T05:07:32;14.30;;;10.60;;
18716;SDS011;9487;50.892;6.906;2024-01-30T05:09:59;11.93;;;10.60;;
18716;SDS011;9487;50.892;6.906;2024-01-30T05:12:26;11.87;;;10.60;;
18716;SDS011;9487;50.892;6.906;2024-01-30T05:14:54;12.33;;;10.87;;
18716;SDS011;9487;50.892;6.906;2024-01-30T05:17:21;12.83;;;11.43;;
18716;SDS011;9487;50.892;6.906;2024-01-30T05:19:48;13.50;;;11.43;;
18716;SDS011;9487;50.892;6.906;2024-01-30T05:22:15;12.50;;;11.20;;
18716;SDS011;9487;50.892;6.906;2024-01-30T05:24:43;13.73;;;11.10;;
18716;SDS011;9487;50.892;6.906;2024-01-30T05:27:10;12.03;;;10.27;;
18716;SDS011;9487;50.892;6.906;2024-01-30T05:29:38;14.27;;;11.23;;
18716;SDS011;9487;50.892;6.906;2024-01-30T05:32:06;11.27;;;10.13;;
18716;SDS011;9487;50.892;6.906;2024-01-30T05:34:33;11.97;;;10.77;;
18716;SDS011;9487;50.892;6.906;2024-01-30T05:37:01;12.50;;;11.17;;
18716;SDS011;9487;50.892;6.906;2024-01-30T05:39:28;11.87;;;10.67;;
18716;SDS011;9487;50.892;6.906;2024-01-30T05:41:57;11.93;;;10.27;;
18716;SDS011;9487;50.892;6.906;2024-01-30T05:44:24;11.53;;;10.27;;
18716;SDS011;9487;50.892;6.906;2024-01-30T05:46:51;11.63;;;10.33;;
18716;SDS011;9487;50.892;6.906;2024-01-30T05:49:19;11.60;;;10.03;;
18716;SDS011;9487;50.892;6.906;2024-01-30T05:51:46;14.13;;;11.37;;
18716;SDS011;9487;50.892;6.906;2024-01-30T05:54:13;13.23;;;10.97;;
18716;SDS011;9487;50.892;6.906;2024-01-30T05:56:40;12.10;;;10.80;;
18716;SDS011;9487;50.892;6.906;2024-01-30T05:59:07;13.57;;;10.70;;
18716;SDS011;9487;50.892;6.906;2024-01-30T06:01:34;13.47;;;11.27;;
18716;SDS011;9487;50.892;6.906;2024-01-30T06:04:01;13.27;;;10.80;;
18716;SDS011;9487;50.892;6.906;2024-01-30T06:06:29;12.03;;;9.87;;
18716;SDS011;9487;50.892;6.906;2024-01-30T06:08:56;12.60;;;10.90;;
18716;SDS011;9487;50.892;6.906;2024-01-30T06:11:22;10.80;;;9.67;;
18716;SDS011;9487;50.892;6.906;2024-01-30T06:13:49;12.17;;;10.87;;
18716;SDS011;9487;50.892;6.906;2024-01-30T06:16:16;13.83;;;10.50;;
18716;SDS011;9487;50.892;6.906;2024-01-30T06:18:44;12.40;;;10.27;;
18716;SDS011;9487;50.892;6.906;2024-01-30T06:21:12;13.87;;;10.63;;
18716;SDS011;9487;50.892;6.906;2024-01-30T06:23:40;12.10;;;10.43;;
18716;SDS011;9487;50.892;6.906;2024-01-30T06:26:07;13.23;;;10.07;;
18716;SDS011;9487;50.892;6.906;2024-01-30T06:28:34;12.00;;;10.40;;
18716;SDS011;9487;50.892;6.906;2024-01-30T06:31:01;11.87;;;10.67;;
18716;SDS011;9487;50.892;6.906;2024-01-30T06:33:28;12.03;;;10.00;;
18716;SDS011;9487;50.892;6.906;2024-01-30T06:35:55;12.80;;;11.33;;
18716;SDS011;9487;50.892;6.906;2024-01-30T06:38:21;12.63;;;11.40;;
18716;SDS011;9487;50.892;6.906;2024-01-30T06:40:50;13.17;;;11.80;;
18716;SDS011;9487;50.892;6.906;2024-01-30T06:43:17;14.57;;;12.10;;
18716;SDS011;9487;50.892;6.906;2024-01-30T06:45:44;14.70;;;11.67;;
18716;SDS011;9487;50.892;6.906;2024-01-30T06:48:11;16.10;;;12.33;;
18716;SDS011;9487;50.892;6.906;2024-01-30T06:50:38;15.93;;;12.63;;
18716;SDS011;9487;50.892;6.906;2024-01-30T06:53:05;13.63;;;12.00;;
18716;SDS011;9487;50.892;6.906;2024-01-30T06:55:31;16.37;;;12.67;;
18716;SDS011;9487;50.892;6.906;2024-01-30T06:58:00;14.03;;;12.00;;
18716;SDS011;9487;50.892;6.906;2024-01-30T07:00:26;16.93;;;12.80;;
18716;SDS011;9487;50.892;6.906;2024-01-30T07:02:53;13.30;;;11.80;;
18716;SDS011;9487;50.892;6.906;2024-01-30T07:05:20;14.13;;;11.87;;
18716;SDS011;9487;50.892;6.906;2024-01-30T07:07:48;14.40;;;11.70;;
18716;SDS011;9487;50.892;6.906;2024-01-30T07:10:15;13.40;;;11.73;;
18716;SDS011;9487;50.892;6.906;2024-01-30T07:12:42;13.73;;;11.67;;
18716;SDS011;9487;50.892;6.906;2024-01-30T07:15:10;11.77;;;10.43;;
18716;SDS011;9487;50.892;6.906;2024-01-30T07:17:39;12.43;;;10.07;;
18716;SDS011;9487;50.892;6.906;2024-01-30T07:20:07;13.23;;;9.50;;
18716;SDS011;9487;50.892;6.906;2024-01-30T07:22:35;14.50;;;10.77;;
18716;SDS011;9487;50.892;6.906;2024-01-30T07:25:02;14.80;;;13.17;;
18716;SDS011;9487;50.892;6.906;2024-01-30T07:27:30;13.90;;;11.97;;
18716;SDS011;9487;50.892;6.906;2024-01-30T07:29:57;11.53;;;10.37;;
18716;SDS011;9487;50.892;6.906;2024-01-30T07:32:25;11.90;;;10.70;;
18716;SDS011;9487;50.892;6.906;2024-01-30T07:34:52;12.13;;;9.57;;
18716;SDS011;9487;50.892;6.906;2024-01-30T07:37:19;11.80;;;10.47;;
18716;SDS011;9487;50.892;6.906;2024-01-30T07:39:46;11.70;;;10.50;;
18716;SDS011;9487;50.892;6.906;2024-01-30T07:42:13;12.67;;;10.13;;
18716;SDS011;9487;50.892;6.906;2024-01-30T07:44:40;14.00;;;10.90;;
18716;SDS011;9487;50.892;6.906;2024-01-30T07:47:07;13.93;;;11.97;;
18716;SDS011;9487;50.892;6.906;2024-01-30T07:49:35;13.43;;;12.03;;
18716;SDS011;9487;50.892;6.906;2024-01-30T07:52:05;15.60;;;12.50;;
18716;SDS011;9487;50.892;6.906;2024-01-30T07:54:32;13.90;;;12.33;;
18716;SDS011;9487;50.892;6.906;2024-01-30T08:03:43;16.63;;;12.67;;
18716;SDS011;9487;50.892;6.906;2024-01-30T08:06:11;13.97;;;12.57;;
18716;SDS011;9487;50.892;6.906;2024-01-30T08:08:39;13.97;;;12.47;;
18716;SDS011;9487;50.892;6.906;2024-01-30T08:11:05;14.43;;;12.47;;
18716;SDS011;9487;50.892;6.906;2024-01-30T08:13:32;15.53;;;12.90;;
18716;SDS011;9487;50.892;6.906;2024-01-30T08:15:59;16.23;;;12.30;;
18716;SDS011;9487;50.892;6.906;2024-01-30T08:18:26;14.57;;;13.07;;
18716;SDS011;9487;50.892;6.906;2024-01-30T08:20:53;17.77;;;13.47;;
18716;SDS011;9487;50.892;6.906;2024-01-30T08:23:21;14.10;;;12.20;;
18716;SDS011;9487;50.892;6.906;2024-01-30T08:25:48;17.57;;;13.70;;
18716;SDS011;9487;50.892;6.906;2024-01-30T08:28:15;15.40;;;11.93;;
18716;SDS011;9487;50.892;6.906;2024-01-30T08:30:41;13.83;;;12.30;;
18716;SDS011;9487;50.892;6.906;2024-01-30T08:33:08;15.00;;;12.77;;
18716;SDS011;9487;50.892;6.906;2024-01-30T08:35:35;14.67;;;13.07;;
18716;SDS011;9487;50.892;6.906;2024-01-30T08:38:03;15.07;;;12.77;;
18716;SDS011;9487;50.892;6.906;2024-01-30T08:40:31;14.53;;;13.00;;
18716;SDS011;9487;50.892;6.906;2024-01-30T08:42:59;15.80;;;13.00;;
18716;SDS011;9487;50.892;6.906;2024-01-30T08:45:26;17.47;;;13.03;;
18716;SDS011;9487;50.892;6.906;2024-01-30T08:47:52;17.33;;;13.13;;
18716;SDS011;9487;50.892;6.906;2024-01-30T08:50:19;13.57;;;12.07;;
18716;SDS011;9487;50.892;6.906;2024-01-30T08:52:46;13.90;;;12.33;;
18716;SDS011;9487;50.892;6.906;2024-01-30T08:55:13;16.33;;;12.70;;
18716;SDS011;9487;50.892;6.906;2024-01-30T08:57:42;15.73;;;13.63;;
18716;SDS011;9487;50.892;6.906;2024-01-30T09:00:09;16.47;;;13.17;;
18716;SDS011;9487;50.892;6.906;2024-01-30T09:02:37;17.00;;;12.60;;
18716;SDS011;9487;50.892;6.906;2024-01-30T09:05:04;14.53;;;11.87;;
18716;SDS011;9487;50.892;6.906;2024-01-30T09:07:32;14.60;;;12.43;;
18716;SDS011;9487;50.892;6.906;2024-01-30T09:09:59;13.83;;;12.33;;
18716;SDS011;9487;50.892;6.906;2024-01-30T09:12:26;12.87;;;11.30;;
18716;SDS011;9487;50.892;6.906;2024-01-30T09:14:55;14.43;;;12.57;;
18716;SDS011;9487;50.892;6.906;2024-01-30T09:17:22;15.97;;;12.30;;
18716;SDS011;9487;50.892;6.906;2024-01-30T09:19:49;12.80;;;11.37;;
18716;SDS011;9487;50.892;6.906;2024-01-30T09:22:16;12.70;;;11.40;;
18716;SDS011;9487;50.892;6.906;2024-01-30T09:24:43;13.53;;;11.70;;
18716;SDS011;9487;50.892;6.906;2024-01-30T09:27:10;12.63;;;11.03;;
18716;SDS011;9487;50.892;6.906;2024-01-30T09:29:36;12.73;;;11.03;;
18716;SDS011;9487;50.892;6.906;2024-01-30T09:32:06;14.30;;;11.87;;
18716;SDS011;9487;50.892;6.906;2024-01-30T09:34:34;12.47;;;10.97;;
18716;SDS011;9487;50.892;6.906;2024-01-30T09:37:01;12.70;;;11.40;;
18716;SDS011;9487;50.892;6.906;2024-01-30T09:39:28;13.93;;;12.43;;
18716;SDS011;9487;50.892;6.906;2024-01-30T09:41:55;13.43;;;11.43;;
18716;SDS011;9487;50.892;6.906;2024-01-30T09:44:28;13.20;;;11.80;;
18716;SDS011;9487;50.892;6.906;2024-01-30T09:46:56;15.87;;;12.10;;
18716;SDS011;9487;50.892;6.906;2024-01-30T09:49:30;16.40;;;12.47;;
18716;SDS011;9487;50.892;6.906;2024-01-30T09:51:59;15.90;;;12.83;;
18716;SDS011;9487;50.892;6.906;2024-01-30T09:54:28;13.83;;;12.37;;
18716;SDS011;9487;50.892;6.906;2024-01-30T09:56:57;13.60;;;11.80;;
18716;SDS011;9487;50.892;6.906;2024-01-30T09:59:24;15.73;;;12.67;;
18716;SDS011;9487;50.892;6.906;2024-01-30T10:01:51;13.13;;;11.70;;
18716;SDS011;9487;50.892;6.906;2024-01-30T10:04:19;14.97;;;13.07;;
18716;SDS011;9487;50.892;6.906;2024-01-30T10:06:48;15.80;;;13.30;;
18716;SDS011;9487;50.892;6.906;2024-01-30T10:09:17;13.57;;;12.17;;
18716;SDS011;9487;50.892;6.906;2024-01-30T10:11:43;12.63;;;11.40;;
18716;SDS011;9487;50.892;6.906;2024-01-30T10:14:10;13.40;;;12.00;;
18716;SDS011;9487;50.892;6.906;2024-01-30T10:16:37;16.40;;;13.20;;
18716;SDS011;9487;50.892;6.906;2024-01-30T10:19:04;14.03;;;11.60;;
18716;SDS011;9487;50.892;6.906;2024-01-30T10:21:31;15.30;;;12.73;;
18716;SDS011;9487;50.892;6.906;2024-01-30T10:24:00;13.43;;;11.87;;
18716;SDS011;9487;50.892;6.906;2024-01-30T10:26:27;14.13;;;12.20;;
18716;SDS011;9487;50.892;6.906;2024-01-30T10:28:58;13.73;;;11.40;;
18716;SDS011;9487;50.892;6.906;2024-01-30T10:31:25;15.97;;;12.37;;
18716;SDS011;9487;50.892;6.906;2024-01-30T10:33:52;13.77;;;12.30;;
18716;SDS011;9487;50.892;6.906;2024-01-30T10:36:19;13.03;;;11.73;;
18716;SDS011;9487;50.892;6.906;2024-01-30T10:38:54;13.90;;;11.80;;
18716;SDS011;9487;50.892;6.906;2024-01-30T10:41:27;13.00;;;11.60;;
18716;SDS011;9487;50.892;6.906;2024-01-30T10:43:58;13.60;;;12.17;;
18716;SDS011;9487;50.892;6.906;2024-01-30T10:46:30;14.80;;;12.27;;
18716;SDS011;9487;50.892;6.906;2024-01-30T10:48:59;13.87;;;11.63;;
18716;SDS011;9487;50.892;6.906;2024-01-30T10:51:27;13.73;;;12.33;;
18716;SDS011;9487;50.892;6.906;2024-01-30T10:53:54;17.33;;;13.10;;
18716;SDS011;9487;50.892;6.906;2024-01-30T10:56:22;15.60;;;12.73;;
18716;SDS011;9487;50.892;6.906;2024-01-30T10:58:51;15.23;;;12.57;;
18716;SDS011;9487;50.892;6.906;2024-01-30T11:01:20;14.90;;;12.27;;
18716;SDS011;9487;50.892;6.906;2024-01-30T11:03:49;14.27;;;12.00;;
18716;SDS011;9487;50.892;6.906;2024-01-30T11:06:17;15.30;;;11.40;;
18716;SDS011;9487;50.892;6.906;2024-01-30T11:08:44;14.27;;;10.73;;
18716;SDS011;9487;50.892;6.906;2024-01-30T11:11:12;12.47;;;10.87;;
18716;SDS011;9487;50.892;6.906;2024-01-30T11:13:38;12.43;;;10.70;;
18716;SDS011;9487;50.892;6.906;2024-01-30T11:16:09;12.20;;;10.90;;
18716;SDS011;9487;50.892;6.906;2024-01-30T11:18:38;12.53;;;10.23;;
18716;SDS011;9487;50.892;6.906;2024-01-30T11:21:05;13.63;;;10.87;;
18716;SDS011;9487;50.892;6.906;2024-01-30T11:23:33;12.33;;;11.10;;
18716;SDS011;9487;50.892;6.906;2024-01-30T11:26:01;12.70;;;10.97;;
18716;SDS011;9487;50.892;6.906;2024-01-30T11:28:31;12.27;;;10.97;;
18716;SDS011;9487;50.892;6.906;2024-01-30T11:31:03;13.13;;;11.57;;
18716;SDS011;9487;50.892;6.906;2024-01-30T11:33:33;15.03;;;11.33;;
18716;SDS011;9487;50.892;6.906;2024-01-30T11:36:00;11.90;;;10.70;;
18716;SDS011;9487;50.892;6.906;2024-01-30T11:38:28;12.73;;;10.37;;
18716;SDS011;9487;50.892;6.906;2024-01-30T11:40:56;10.97;;;9.87;;
18716;SDS011;9487;50.892;6.906;2024-01-30T11:43:23;11.03;;;9.80;;
18716;SDS011;9487;50.892;6.906;2024-01-30T11:45:50;12.03;;;10.27;;
18716;SDS011;9487;50.892;6.906;2024-01-30T11:48:18;14.80;;;10.03;;
18716;SDS011;9487;50.892;6.906;2024-01-30T11:50:47;12.87;;;9.47;;
18716;SDS011;9487;50.892;6.906;2024-01-30T11:53:15;10.93;;;9.80;;
18716;SDS011;9487;50.892;6.906;2024-01-30T11:55:48;13.30;;;10.07;;
18716;SDS011;9487;50.892;6.906;2024-01-30T11:58:16;11.00;;;9.90;;
18716;SDS011;9487;50.892;6.906;2024-01-30T12:00:43;12.03;;;10.67;;
18716;SDS011;9487;50.892;6.906;2024-01-30T12:03:19;13.00;;;10.33;;
18716;SDS011;9487;50.892;6.906;2024-01-30T12:05:53;11.17;;;9.90;;
18716;SDS011;9487;50.892;6.906;2024-01-30T12:08:22;13.17;;;10.50;;
18716;SDS011;9487;50.892;6.906;2024-01-30T12:10:55;10.50;;;9.40;;
18716;SDS011;9487;50.892;6.906;2024-01-30T12:13:24;11.37;;;10.17;;
18716;SDS011;9487;50.892;6.906;2024-01-30T12:15:51;12.23;;;10.03;;
18716;SDS011;9487;50.892;6.906;2024-01-30T12:18:19;11.90;;;9.90;;
18716;SDS011;9487;50.892;6.906;2024-01-30T12:20:57;11.60;;;9.73;;
18716;SDS011;9487;50.892;6.906;2024-01-30T12:23:25;11.20;;;9.57;;
18716;SDS011;9487;50.892;6.906;2024-01-30T12:25:52;11.33;;;9.57;;
18716;SDS011;9487;50.892;6.906;2024-01-30T12:28:19;10.13;;;9.13;;
18716;SDS011;9487;50.892;6.906;2024-01-30T12:30:46;12.73;;;9.50;;
18716;SDS011;9487;50.892;6.906;2024-01-30T12:33:15;10.63;;;9.27;;
18716;SDS011;9487;50.892;6.906;2024-01-30T12:35:45;11.37;;;9.27;;
18716;SDS011;9487;50.892;6.906;2024-01-30T12:38:14;10.07;;;8.77;;
18716;SDS011;9487;50.892;6.906;2024-01-30T12:40:41;11.27;;;9.43;;
18716;SDS011;9487;50.892;6.906;2024-01-30T12:43:08;11.17;;;9.10;;
18716;SDS011;9487;50.892;6.906;2024-01-30T12:45:35;10.80;;;8.90;;
18716;SDS011;9487;50.892;6.906;2024-01-30T12:48:03;10.50;;;9.40;;
18716;SDS011;9487;50.892;6.906;2024-01-30T12:50:32;11.47;;;8.60;;
18716;SDS011;9487;50.892;6.906;2024-01-30T12:52:59;9.57;;;8.60;;
18716;SDS011;9487;50.892;6.906;2024-01-30T12:55:27;10.23;;;8.67;;
18716;SDS011;9487;50.892;6.906;2024-01-30T12:57:55;12.17;;;9.40;;
18716;SDS011;9487;50.892;6.906;2024-01-30T13:00:22;12.10;;;9.77;;
18716;SDS011;9487;50.892;6.906;2024-01-30T13:02:49;10.47;;;9.33;;
18716;SDS011;9487;50.892;6.906;2024-01-30T13:05:17;11.47;;;9.17;;
18716;SDS011;9487;50.892;6.906;2024-01-30T13:07:45;9.90;;;8.70;;
18716;SDS011;9487;50.892;6.906;2024-01-30T13:10:12;9.30;;;8.17;;
18716;SDS011;9487;50.892;6.906;2024-01-30T13:12:42;9.77;;;8.47;;
18716;SDS011;9487;50.892;6.906;2024-01-30T13:15:09;11.33;;;8.43;;
18716;SDS011;9487;50.892;6.906;2024-01-30T13:17:36;9.83;;;8.43;;
18716;SDS011;9487;50.892;6.906;2024-01-30T13:20:04;11.17;;;8.90;;
18716;SDS011;9487;50.892;6.906;2024-01-30T13:22:33;9.97;;;8.87;;
18716;SDS011;9487;50.892;6.906;2024-01-30T13:25:00;10.47;;;8.83;;
18716;SDS011;9487;50.892;6.906;2024-01-30T13:27:27;10.40;;;8.10;;
18716;SDS011;9487;50.892;6.906;2024-01-30T13:29:55;10.50;;;8.77;;
18716;SDS011;9487;50.892;6.906;2024-01-30T13:32:22;8.97;;;8.07;;
18716;SDS011;9487;50.892;6.906;2024-01-30T13:34:49;8.73;;;7.83;;
18716;SDS011;9487;50.892;6.906;2024-01-30T13:37:16;9.00;;;8.07;;
18716;SDS011;9487;50.892;6.906;2024-01-30T13:39:43;10.47;;;8.33;;
18716;SDS011;9487;50.892;6.906;2024-01-30T13:42:10;10.20;;;8.00;;
18716;SDS011;9487;50.892;6.906;2024-01-30T13:44:37;10.50;;;8.50;;
18716;SDS011;9487;50.892;6.906;2024-01-30T13:47:05;8.50;;;7.60;;
18716;SDS011;9487;50.892;6.906;2024-01-30T13:49:32;10.67;;;9.17;;
18716;SDS011;9487;50.892;6.906;2024-01-30T13:51:59;11.03;;;8.27;;
18716;SDS011;9487;50.892;6.906;2024-01-30T13:54:27;12.97;;;10.27;;
18716;SDS011;9487;50.892;6.906;2024-01-30T13:56:55;10.97;;;9.97;;
18716;SDS011;9487;50.892;6.906;2024-01-30T13:59:23;10.90;;;9.20;;
18716;SDS011;9487;50.892;6.906;2024-01-30T14:01:51;9.20;;;8.07;;
18716;SDS011;9487;50.892;6.906;2024-01-30T14:04:19;9.37;;;8.27;;
18716;SDS011;9487;50.892;6.906;2024-01-30T14:06:46;11.43;;;8.83;;
18716;SDS011;9487;50.892;6.906;2024-01-30T14:09:13;10.70;;;8.57;;
18716;SDS011;9487;50.892;6.906;2024-01-30T14:11:41;12.20;;;9.20;;
18716;SDS011;9487;50.892;6.906;2024-01-30T14:14:08;10.00;;;9.00;;
18716;SDS011;9487;50.892;6.906;2024-01-30T14:16:35;13.93;;;10.00;;
18716;SDS011;9487;50.892;6.906;2024-01-30T14:19:02;11.47;;;9.13;;
18716;SDS011;9487;50.892;6.906;2024-01-30T14:21:31;9.87;;;8.17;;
18716;SDS011;9487;50.892;6.906;2024-01-30T14:23:58;8.70;;;6.70;;
18716;SDS011;9487;50.892;6.906;2024-01-30T14:26:25;8.20;;;6.80;;
18716;SDS011;9487;50.892;6.906;2024-01-30T14:28:52;9.33;;;5.80;;
18716;SDS011;9487;50.892;6.906;2024-01-30T14:31:20;8.90;;;5.77;;
18716;SDS011;9487;50.892;6.906;2024-01-30T14:33:49;9.50;;;6.30;;
18716;SDS011;9487;50.892;6.906;2024-01-30T14:36:17;7.67;;;5.97;;
18716;SDS011;9487;50.892;6.906;2024-01-30T14:38:46;6.83;;;5.90;;
18716;SDS011;9487;50.892;6.906;2024-01-30T14:41:16;8.03;;;5.83;;
18716;SDS011;9487;50.892;6.906;2024-01-30T14:43:45;6.87;;;6.00;;
18716;SDS011;9487;50.892;6.906;2024-01-30T14:46:12;8.17;;;5.73;;